Terminal Aerodrome Forecast
Issued by NWS

Home | Current Version | Previous Version | Text Only | Print | Product List | Glossary On
Versions: 1 2 3 4 5 6 7 8 9 10 11 12 13 14 15 16 17 18 19 20 21
000
FTUS46 KSTO 250600 AAA
TAFSMF
TAF AMD
KSMF 250631Z 2507/2606 33016G24KT P6SM SKC
     FM251700 34022G29KT P6SM SKC
     FM260200 34013KT P6SM SKC=

USA.gov is the U.S. government's official web portal to all federal, state and local government web resources and services.